createdAt,value
2023-04-22T00:01:13.502Z,11.48
2023-04-22T00:03:42.226Z,14.48
2023-04-22T00:06:09.376Z,12.57
2023-04-22T00:08:36.316Z,13.68
2023-04-22T00:11:03.646Z,13.52
2023-04-22T00:13:30.648Z,12.18
2023-04-22T00:15:58.116Z,12.07
2023-04-22T00:18:25.033Z,12.75
2023-04-22T00:20:52.224Z,13.77
2023-04-22T00:23:19.170Z,13.32
2023-04-22T00:25:46.194Z,13.38
2023-04-22T00:28:13.192Z,14.98
2023-04-22T00:30:40.082Z,13.43
2023-04-22T00:33:07.176Z,14.27
2023-04-22T00:35:34.236Z,11.10
2023-04-22T00:38:01.137Z,11.00
2023-04-22T00:40:31.259Z,13.27
2023-04-22T00:42:59.933Z,12.10
2023-04-22T00:45:27.191Z,13.30
2023-04-22T00:47:54.378Z,11.82
2023-04-22T00:50:21.606Z,13.27
2023-04-22T00:52:49.618Z,11.80
2023-04-22T00:55:16.630Z,12.13
2023-04-22T00:57:44.349Z,12.98
2023-04-22T01:00:12.070Z,11.35
2023-04-22T01:02:39.334Z,12.95
2023-04-22T01:05:09.384Z,11.50
2023-04-22T01:10:04.899Z,11.18
2023-04-22T01:12:31.881Z,12.40
2023-04-22T01:14:58.903Z,11.27
2023-04-22T01:17:25.961Z,12.25
2023-04-22T01:19:53.318Z,11.80
2023-04-22T01:22:21.555Z,11.00
2023-04-22T01:24:49.138Z,11.60
2023-04-22T01:27:16.164Z,12.80
2023-04-22T01:29:43.527Z,13.23
2023-04-22T01:32:11.106Z,12.85
2023-04-22T01:34:38.174Z,12.32
2023-04-22T01:37:07.181Z,9.65
2023-04-22T01:39:35.207Z,12.68
2023-04-22T01:42:03.868Z,10.55
2023-04-22T01:44:30.817Z,11.02
2023-04-22T01:46:57.872Z,12.45
2023-04-22T01:49:24.813Z,10.32
2023-04-22T01:51:51.722Z,11.30
2023-04-22T01:54:20.905Z,14.98
2023-04-22T01:56:53.782Z,10.88
2023-04-22T02:01:49.336Z,11.98
2023-04-22T02:04:16.986Z,11.95
2023-04-22T02:06:43.938Z,11.40
2023-04-22T02:09:10.918Z,11.25
2023-04-22T02:11:37.968Z,12.65
2023-04-22T02:14:05.062Z,10.55
2023-04-22T02:16:32.027Z,10.88
2023-04-22T02:19:00.168Z,13.13
2023-04-22T02:21:30.152Z,10.25
2023-04-22T02:23:57.076Z,10.63
2023-04-22T02:26:25.827Z,11.23
2023-04-22T02:28:53.390Z,12.65
2023-04-22T02:31:22.912Z,13.70
2023-04-22T02:33:50.093Z,15.65
2023-04-22T02:36:17.200Z,12.32
2023-04-22T02:38:44.171Z,11.55
2023-04-22T02:41:11.328Z,12.63
2023-04-22T02:43:38.470Z,13.10
2023-04-22T02:46:05.494Z,13.95
2023-04-22T02:48:32.463Z,12.35
2023-04-22T02:50:59.436Z,13.65
2023-04-22T02:53:26.309Z,16.13
2023-04-22T02:55:55.593Z,10.23
2023-04-22T02:58:22.552Z,11.60
2023-04-22T03:00:53.054Z,11.93
2023-04-22T03:03:20.214Z,12.27
2023-04-22T03:05:47.259Z,11.43
2023-04-22T03:08:14.347Z,11.20
2023-04-22T03:10:41.447Z,12.23
2023-04-22T03:13:08.474Z,13.27
2023-04-22T03:15:35.682Z,13.60
2023-04-22T03:18:03.208Z,17.27
2023-04-22T03:20:30.197Z,11.13
2023-04-22T03:22:57.090Z,12.93
2023-04-22T03:27:55.880Z,13.27
2023-04-22T03:30:22.917Z,11.70
2023-04-22T03:32:49.972Z,14.50
2023-04-22T03:35:23.684Z,11.45
2023-04-22T03:37:52.174Z,12.07
2023-04-22T03:40:24.566Z,18.35
2023-04-22T03:42:51.530Z,12.07
2023-04-22T03:45:20.776Z,13.45
2023-04-22T03:47:56.237Z,14.07
2023-04-22T03:50:30.699Z,11.65
2023-04-22T03:52:58.801Z,16.58
2023-04-22T03:55:26.438Z,14.18
2023-04-22T03:57:54.296Z,11.98
2023-04-22T04:00:21.420Z,15.30
2023-04-22T04:02:58.649Z,12.52
2023-04-22T04:05:27.658Z,11.23
2023-04-22T04:07:54.650Z,15.80
2023-04-22T04:10:23.209Z,11.40
2023-04-22T04:12:51.664Z,11.23
2023-04-22T04:15:21.380Z,16.10
2023-04-22T04:17:50.544Z,12.82
2023-04-22T04:20:19.536Z,14.82
2023-04-22T04:22:46.811Z,12.10
2023-04-22T04:25:14.211Z,12.68
2023-04-22T04:27:45.566Z,14.95
2023-04-22T04:30:16.314Z,11.85
2023-04-22T04:32:48.212Z,17.70
2023-04-22T04:35:18.317Z,12.18
2023-04-22T04:37:50.864Z,12.65
2023-04-22T04:40:23.748Z,13.00
2023-04-22T04:43:08.332Z,13.60
2023-04-22T04:45:49.625Z,15.10
2023-04-22T04:48:24.881Z,11.65
2023-04-22T04:50:55.211Z,11.57
2023-04-22T04:53:23.981Z,13.10
2023-04-22T04:55:51.501Z,13.43
2023-04-22T04:58:22.368Z,13.73
2023-04-22T05:00:59.580Z,13.07
2023-04-22T05:03:27.145Z,12.02
2023-04-22T05:05:55.215Z,12.40
2023-04-22T05:08:22.671Z,13.70
2023-04-22T05:10:51.676Z,12.52
2023-04-22T05:13:19.461Z,11.85
2023-04-22T05:15:48.060Z,11.82
2023-04-22T05:18:15.393Z,12.77
2023-04-22T05:20:42.618Z,14.45
2023-04-22T05:23:09.878Z,11.30
2023-04-22T05:25:36.973Z,12.20
2023-04-22T05:28:08.756Z,14.10
2023-04-22T05:30:43.869Z,13.75
2023-04-22T05:33:10.962Z,14.93
2023-04-22T05:35:38.208Z,12.32
2023-04-22T05:38:05.443Z,12.25
2023-04-22T05:40:33.421Z,13.98
2023-04-22T05:43:01.381Z,12.73
2023-04-22T05:45:28.602Z,11.18
2023-04-22T05:47:55.943Z,11.05
2023-04-22T05:50:25.803Z,13.98
2023-04-22T05:52:58.353Z,12.63
2023-04-22T05:55:25.391Z,15.40
2023-04-22T05:57:52.854Z,14.32
2023-04-22T06:00:39.785Z,10.63
2023-04-22T06:03:19.739Z,10.95
2023-04-22T06:05:46.847Z,13.27
2023-04-22T06:08:13.889Z,11.00
2023-04-22T06:10:40.930Z,13.18
2023-04-22T06:13:09.354Z,12.65
2023-04-22T06:15:36.474Z,11.18
2023-04-22T06:18:03.632Z,12.77
2023-04-22T06:20:32.739Z,13.65
2023-04-22T06:22:59.791Z,10.68
2023-04-22T06:25:26.774Z,12.05
2023-04-22T06:27:53.845Z,16.20
2023-04-22T06:30:22.609Z,12.88
2023-04-22T06:32:49.655Z,10.80
2023-04-22T06:35:16.800Z,14.25
2023-04-22T06:37:44.335Z,9.13
2023-04-22T06:40:11.619Z,11.07
2023-04-22T06:42:47.570Z,10.18
2023-04-22T06:45:37.607Z,12.80
2023-04-22T06:48:18.888Z,12.55
2023-04-22T06:51:05.829Z,9.88
2023-04-22T06:53:32.842Z,11.57
2023-04-22T06:55:59.722Z,11.18
2023-04-22T06:58:26.917Z,10.18
2023-04-22T07:00:54.180Z,10.73
2023-04-22T07:03:21.265Z,10.32
2023-04-22T07:05:59.211Z,11.10
2023-04-22T07:08:26.142Z,8.23
2023-04-22T07:10:57.812Z,9.95
2023-04-22T07:13:34.560Z,9.00
2023-04-22T07:16:01.756Z,9.00
2023-04-22T07:18:29.346Z,7.68
2023-04-22T07:20:56.712Z,9.80
2023-04-22T07:23:23.666Z,8.82
2023-04-22T07:25:50.772Z,9.98
2023-04-22T07:28:17.873Z,8.48
2023-04-22T07:30:46.006Z,9.57
2023-04-22T07:33:12.906Z,8.80
2023-04-22T07:35:39.993Z,8.90
2023-04-22T07:38:08.069Z,8.45
2023-04-22T07:40:36.129Z,9.77
2023-04-22T07:43:03.844Z,8.98
2023-04-22T07:45:30.778Z,9.70
2023-04-22T07:47:57.892Z,8.80
2023-04-22T07:50:24.832Z,8.57
2023-04-22T07:52:51.882Z,9.02
2023-04-22T07:55:18.786Z,8.93
2023-04-22T07:57:45.842Z,9.77
2023-04-22T08:00:13.982Z,8.30
2023-04-22T08:02:41.304Z,8.45
2023-04-22T08:05:08.615Z,9.65
2023-04-22T08:07:35.614Z,9.85
2023-04-22T08:10:02.582Z,10.63
2023-04-22T08:12:29.517Z,9.73
2023-04-22T08:14:58.060Z,10.27
2023-04-22T08:17:25.239Z,9.18
2023-04-22T08:19:52.263Z,10.18
2023-04-22T08:22:19.263Z,7.10
2023-04-22T08:24:46.205Z,10.20
2023-04-22T08:27:13.157Z,9.30
2023-04-22T08:29:40.349Z,9.75
2023-04-22T08:32:07.801Z,10.23
2023-04-22T08:34:34.719Z,7.70
2023-04-22T08:37:01.643Z,10.20
2023-04-22T08:39:28.560Z,9.52
2023-04-22T08:41:58.724Z,10.10
2023-04-22T08:44:26.186Z,10.23
2023-04-22T08:46:54.678Z,9.80
2023-04-22T08:49:24.411Z,9.93
2023-04-22T08:51:54.117Z,10.55
2023-04-22T08:54:21.388Z,10.88
2023-04-22T08:56:50.902Z,10.20
2023-04-22T08:59:20.434Z,10.50
2023-04-22T09:04:19.472Z,9.80
2023-04-22T09:06:46.466Z,10.20
2023-04-22T09:09:14.229Z,9.65
2023-04-22T09:11:41.526Z,10.32
2023-04-22T09:14:08.464Z,10.13
2023-04-22T09:16:44.159Z,10.65
2023-04-22T09:19:15.249Z,10.10
2023-04-22T09:21:42.838Z,8.98
2023-04-22T09:24:11.843Z,8.82
2023-04-22T09:26:42.695Z,11.45
2023-04-22T09:29:15.809Z,21.48
2023-04-22T09:31:44.340Z,17.42
2023-04-22T09:34:11.366Z,12.05
2023-04-22T09:36:38.293Z,10.27
2023-04-22T09:39:08.692Z,11.13
2023-04-22T09:41:40.648Z,11.82
2023-04-22T09:44:16.952Z,10.63
2023-04-22T09:46:45.004Z,11.20
2023-04-22T09:49:12.218Z,10.60
2023-04-22T09:51:42.529Z,11.68
2023-04-22T09:54:11.607Z,11.13
2023-04-22T09:56:52.967Z,10.82
2023-04-22T09:59:22.225Z,10.30
2023-04-22T10:01:51.964Z,9.30
2023-04-22T10:04:21.508Z,11.05
2023-04-22T10:06:49.706Z,10.30
2023-04-22T10:09:23.269Z,11.02
2023-04-22T10:11:53.906Z,14.95
2023-04-22T10:14:25.170Z,11.38
2023-04-22T10:17:00.180Z,8.60
2023-04-22T10:19:27.602Z,11.13
2023-04-22T10:22:01.110Z,10.45
2023-04-22T10:24:35.454Z,11.57
2023-04-22T10:27:08.404Z,10.93
2023-04-22T10:29:42.500Z,10.65
2023-04-22T10:32:18.288Z,10.80
2023-04-22T10:34:47.910Z,11.18
2023-04-22T10:37:19.162Z,8.70
2023-04-22T10:40:16.684Z,11.88
2023-04-22T10:42:50.677Z,11.45
2023-04-22T10:45:17.870Z,11.30
2023-04-22T10:47:45.574Z,11.25
2023-04-22T10:50:26.619Z,10.82
2023-04-22T10:52:58.366Z,12.15
2023-04-22T10:55:26.310Z,12.20
2023-04-22T10:57:53.953Z,12.23
2023-04-22T11:00:25.539Z,12.35
2023-04-22T11:03:12.532Z,11.00
2023-04-22T11:05:40.870Z,12.05
2023-04-22T11:08:20.612Z,11.48
2023-04-22T11:10:50.363Z,11.82
2023-04-22T11:13:22.111Z,11.35
2023-04-22T11:15:54.168Z,10.95
2023-04-22T11:18:27.559Z,12.73
2023-04-22T11:20:54.793Z,12.05
2023-04-22T11:23:25.588Z,11.63
2023-04-22T11:26:05.707Z,12.18
2023-04-22T11:28:33.156Z,11.77
2023-04-22T11:31:12.251Z,11.75
2023-04-22T11:33:39.302Z,12.07
2023-04-22T11:36:11.804Z,11.93
2023-04-22T11:38:38.867Z,12.30
2023-04-22T11:41:05.964Z,11.32
2023-04-22T11:43:32.877Z,12.38
2023-04-22T11:45:59.875Z,12.55
2023-04-22T11:48:27.012Z,12.55
2023-04-22T11:51:11.091Z,12.30
2023-04-22T11:53:40.088Z,12.65
2023-04-22T11:56:07.100Z,12.85
2023-04-22T11:58:34.032Z,12.50
2023-04-22T12:01:01.154Z,12.02
2023-04-22T12:03:30.053Z,12.40
2023-04-22T12:06:05.056Z,12.30
2023-04-22T12:08:39.748Z,12.40
2023-04-22T12:11:10.495Z,12.45
2023-04-22T12:13:37.289Z,12.48
2023-04-22T12:16:14.835Z,12.60
2023-04-22T12:18:52.750Z,13.43
2023-04-22T12:21:25.884Z,12.43
2023-04-22T12:24:04.939Z,11.68
2023-04-22T12:26:32.100Z,10.48
2023-04-22T12:29:00.502Z,13.07
2023-04-22T12:31:27.898Z,12.35
2023-04-22T12:33:55.892Z,11.23
2023-04-22T12:36:23.671Z,10.80
2023-04-22T12:38:51.290Z,11.30
2023-04-22T12:41:18.384Z,11.82
2023-04-22T12:43:45.331Z,11.52
2023-04-22T12:46:12.490Z,11.70
2023-04-22T12:48:39.452Z,11.27
2023-04-22T12:51:06.933Z,11.48
2023-04-22T12:53:34.372Z,11.90
2023-04-22T12:56:01.386Z,11.18
2023-04-22T12:58:28.346Z,12.25
2023-04-22T13:00:55.406Z,11.77
2023-04-22T13:03:22.651Z,11.68
2023-04-22T13:05:49.818Z,11.48
2023-04-22T13:08:17.584Z,11.60
2023-04-22T13:10:44.516Z,11.73
2023-04-22T13:13:18.561Z,11.88
2023-04-22T13:15:50.491Z,11.35
2023-04-22T13:18:17.582Z,12.10
2023-04-22T13:20:44.766Z,11.20
2023-04-22T13:23:13.074Z,11.73
2023-04-22T13:25:40.066Z,11.60
2023-04-22T13:28:07.138Z,11.52
2023-04-22T13:30:34.030Z,12.05
2023-04-22T13:33:01.040Z,12.00
2023-04-22T13:35:28.058Z,12.05
2023-04-22T13:37:55.037Z,11.65
2023-04-22T13:40:22.226Z,11.82
2023-04-22T13:42:49.269Z,11.68
2023-04-22T13:45:16.185Z,11.52
2023-04-22T13:47:43.159Z,11.27
2023-04-22T13:50:10.712Z,12.70
2023-04-22T13:52:37.632Z,12.23
2023-04-22T13:55:05.023Z,11.70
2023-04-22T13:57:32.370Z,11.57
2023-04-22T13:59:59.486Z,11.63
2023-04-22T14:02:26.537Z,12.07
2023-04-22T14:04:53.708Z,11.75
2023-04-22T14:07:20.663Z,11.48
2023-04-22T14:09:47.610Z,12.30
2023-04-22T14:12:14.623Z,11.48
2023-04-22T14:14:41.590Z,11.10
2023-04-22T14:17:08.616Z,11.48
2023-04-22T14:19:38.818Z,12.07
2023-04-22T14:22:06.575Z,11.50
2023-04-22T14:24:33.663Z,11.35
2023-04-22T14:27:03.552Z,11.57
2023-04-22T14:29:30.964Z,9.57
2023-04-22T14:31:58.612Z,11.90
2023-04-22T14:34:26.964Z,10.95
2023-04-22T14:36:54.187Z,12.23
2023-04-22T14:39:21.466Z,11.52
2023-04-22T14:41:48.562Z,11.38
2023-04-22T14:44:15.646Z,11.25
2023-04-22T14:46:42.530Z,11.45
2023-04-22T14:49:09.486Z,12.40
2023-04-22T14:51:36.585Z,11.60
2023-04-22T14:54:03.546Z,11.73
2023-04-22T14:56:30.686Z,10.60
2023-04-22T14:58:57.594Z,12.32
2023-04-22T15:01:24.566Z,12.32
2023-04-22T15:03:52.127Z,10.57
2023-04-22T15:06:19.209Z,10.65
2023-04-22T15:08:46.284Z,11.65
2023-04-22T15:11:13.307Z,11.45
2023-04-22T15:13:40.271Z,11.73
2023-04-22T15:16:07.264Z,12.57
2023-04-22T15:18:34.350Z,11.25
2023-04-22T15:21:03.300Z,11.63
2023-04-22T15:23:30.234Z,12.00
2023-04-22T15:25:57.183Z,12.13
2023-04-22T15:28:24.514Z,12.85
2023-04-22T15:30:51.437Z,12.43
2023-04-22T15:33:18.416Z,12.27
2023-04-22T15:35:47.553Z,13.07
2023-04-22T15:38:14.458Z,12.45
2023-04-22T15:40:41.424Z,10.40
2023-04-22T15:43:08.475Z,11.65
2023-04-22T15:45:35.722Z,11.07
2023-04-22T15:48:03.275Z,11.60
2023-04-22T15:50:31.313Z,11.15
2023-04-22T15:52:58.279Z,11.63
2023-04-22T15:55:25.581Z,12.13
2023-04-22T15:57:52.471Z,11.60
2023-04-22T16:00:19.592Z,12.65
2023-04-22T16:02:54.846Z,11.27
2023-04-22T16:05:25.063Z,12.32
2023-04-22T16:07:54.155Z,11.68
2023-04-22T16:10:21.419Z,10.85
2023-04-22T16:12:48.949Z,11.95
2023-04-22T16:15:16.534Z,12.07
2023-04-22T16:17:44.275Z,12.38
2023-04-22T16:20:11.589Z,11.63
2023-04-22T16:22:38.578Z,11.20
2023-04-22T16:25:07.127Z,11.45
2023-04-22T16:27:34.445Z,12.52
2023-04-22T16:30:01.951Z,11.43
2023-04-22T16:32:28.971Z,11.50
2023-04-22T16:34:56.069Z,11.43
2023-04-22T16:37:23.036Z,10.85
2023-04-22T16:39:50.552Z,11.95
2023-04-22T16:42:17.612Z,11.35
2023-04-22T16:44:44.540Z,14.45
2023-04-22T16:47:11.480Z,11.85
2023-04-22T16:49:38.654Z,12.10
2023-04-22T16:52:06.036Z,12.40
2023-04-22T16:54:33.797Z,13.07
2023-04-22T16:57:01.476Z,12.40
2023-04-22T16:59:29.899Z,11.98
2023-04-22T17:01:57.328Z,12.65
2023-04-22T17:04:24.520Z,12.55
2023-04-22T17:06:51.701Z,12.40
2023-04-22T17:09:18.742Z,11.90
2023-04-22T17:11:45.770Z,12.45
2023-04-22T17:14:12.789Z,12.48
2023-04-22T17:16:39.741Z,12.07
2023-04-22T17:19:06.881Z,11.73
2023-04-22T17:21:35.104Z,9.93
2023-04-22T17:24:03.830Z,10.32
2023-04-22T17:26:30.720Z,11.25
2023-04-22T17:28:57.640Z,9.38
2023-04-22T17:31:25.050Z,10.05
2023-04-22T17:33:52.003Z,9.25
2023-04-22T17:36:20.106Z,9.48
2023-04-22T17:38:47.244Z,8.52
2023-04-22T17:41:14.277Z,9.02
2023-04-22T17:43:41.411Z,10.18
2023-04-22T17:46:09.333Z,12.38
2023-04-22T17:48:36.710Z,8.63
2023-04-22T17:51:07.377Z,7.55
2023-04-22T17:53:34.774Z,9.15
2023-04-22T17:56:01.693Z,8.25
2023-04-22T17:58:28.693Z,7.90
2023-04-22T18:00:56.173Z,8.52
2023-04-22T18:03:23.209Z,8.85
2023-04-22T18:05:50.238Z,8.30
2023-04-22T18:08:17.128Z,7.28
2023-04-22T18:10:44.000Z,6.18
2023-04-22T18:13:10.904Z,6.65
2023-04-22T18:15:37.816Z,6.82
2023-04-22T18:18:05.100Z,6.53
2023-04-22T18:20:33.375Z,5.35
2023-04-22T18:23:00.414Z,5.75
2023-04-22T18:25:27.965Z,8.15
2023-04-22T18:27:55.128Z,6.30
2023-04-22T18:30:23.238Z,5.55
2023-04-22T18:32:50.931Z,4.72
2023-04-22T18:35:18.117Z,5.78
2023-04-22T18:37:45.503Z,5.13
2023-04-22T18:40:13.710Z,5.35
2023-04-22T18:42:44.501Z,5.93
2023-04-22T18:45:11.926Z,5.45
2023-04-22T18:47:38.926Z,6.57
2023-04-22T18:50:06.627Z,5.50
2023-04-22T18:52:34.045Z,5.65
2023-04-22T18:55:01.054Z,5.80
2023-04-22T18:57:28.054Z,4.72
2023-04-22T18:59:55.111Z,5.30
2023-04-22T19:02:22.132Z,6.53
2023-04-22T19:04:49.337Z,6.18
2023-04-22T19:07:16.259Z,5.57
2023-04-22T19:09:43.175Z,5.30
2023-04-22T19:12:14.613Z,5.60
2023-04-22T19:14:42.170Z,5.72
2023-04-22T19:17:09.382Z,5.00
2023-04-22T19:19:36.403Z,5.43
2023-04-22T19:22:03.576Z,5.03
2023-04-22T19:24:33.486Z,4.85
2023-04-22T19:27:02.651Z,4.82
2023-04-22T19:29:29.854Z,5.68
2023-04-22T19:31:57.300Z,4.53
2023-04-22T19:34:24.272Z,7.40
2023-04-22T19:36:51.308Z,5.15
2023-04-22T19:39:18.292Z,4.15
2023-04-22T19:41:45.262Z,4.50
2023-04-22T19:44:12.448Z,4.07
2023-04-22T19:46:39.542Z,5.07
2023-04-22T19:49:06.845Z,3.63
2023-04-22T19:51:34.421Z,4.38
2023-04-22T19:54:02.292Z,4.80
2023-04-22T19:56:29.318Z,4.90
2023-04-22T19:58:56.870Z,5.72
2023-04-22T20:01:24.119Z,8.48
2023-04-22T20:03:52.233Z,4.85
2023-04-22T20:06:23.207Z,5.35
2023-04-22T20:08:53.571Z,7.90
2023-04-22T20:11:21.593Z,5.88
2023-04-22T20:13:49.670Z,4.95
2023-04-22T20:16:19.187Z,4.50
2023-04-22T20:18:46.517Z,5.65
2023-04-22T20:21:14.780Z,5.57
2023-04-22T20:23:43.117Z,4.55
2023-04-22T20:26:10.353Z,5.30
2023-04-22T20:28:49.709Z,4.40
2023-04-22T20:31:22.359Z,6.53
2023-04-22T20:33:50.761Z,5.95
2023-04-22T20:36:19.749Z,5.97
2023-04-22T20:38:51.037Z,4.15
2023-04-22T20:41:18.510Z,5.53
2023-04-22T20:43:45.860Z,4.47
2023-04-22T20:46:12.968Z,3.55
2023-04-22T20:48:39.879Z,5.15
2023-04-22T20:51:06.971Z,5.32
2023-04-22T20:53:34.096Z,3.63
2023-04-22T20:56:01.248Z,3.75
2023-04-22T20:58:28.339Z,5.50
2023-04-22T21:00:55.715Z,4.20
2023-04-22T21:03:23.765Z,4.05
2023-04-22T21:05:52.236Z,3.80
2023-04-22T21:08:23.637Z,4.95
2023-04-22T21:10:56.262Z,5.55
2023-04-22T21:13:23.673Z,6.00
2023-04-22T21:15:59.454Z,4.30
2023-04-22T21:18:28.892Z,5.10
2023-04-22T21:20:57.098Z,5.13
2023-04-22T21:23:25.106Z,7.60
2023-04-22T21:25:54.950Z,4.47
2023-04-22T21:28:23.246Z,5.80
2023-04-22T21:30:50.595Z,5.65
2023-04-22T21:33:17.552Z,5.30
2023-04-22T21:35:44.589Z,5.53
2023-04-22T21:38:11.921Z,4.45
2023-04-22T21:40:38.907Z,4.55
2023-04-22T21:43:06.045Z,5.22
2023-04-22T21:45:33.007Z,5.35
2023-04-22T21:47:59.980Z,6.90
2023-04-22T21:50:30.048Z,5.43
2023-04-22T21:55:24.150Z,6.90
2023-04-22T21:57:51.069Z,6.93
2023-04-22T22:00:19.040Z,7.60
2023-04-22T22:02:48.395Z,7.63
2023-04-22T22:05:16.089Z,5.25
2023-04-22T22:07:45.036Z,7.82
2023-04-22T22:10:16.166Z,6.32
2023-04-22T22:12:43.096Z,8.98
2023-04-22T22:15:11.358Z,7.40
2023-04-22T22:17:40.189Z,6.55
2023-04-22T22:20:13.260Z,7.88
2023-04-22T22:22:42.115Z,6.82
2023-04-22T22:25:12.704Z,8.65
2023-04-22T22:27:41.384Z,7.57
2023-04-22T22:30:09.129Z,9.43
2023-04-22T22:32:36.358Z,7.18
2023-04-22T22:35:03.933Z,9.23
2023-04-22T22:37:31.263Z,8.95
2023-04-22T22:39:58.332Z,7.90
2023-04-22T22:42:25.854Z,8.80
2023-04-22T22:44:52.837Z,7.85
2023-04-22T22:47:20.017Z,9.90
2023-04-22T22:49:47.122Z,7.68
2023-04-22T22:52:14.229Z,8.60
2023-04-22T22:54:41.458Z,10.55
2023-04-22T22:57:09.124Z,11.00
2023-04-22T22:59:37.303Z,9.82
2023-04-22T23:02:04.838Z,10.15
2023-04-22T23:04:32.247Z,11.98
2023-04-22T23:06:59.465Z,10.30
2023-04-22T23:09:26.429Z,11.27
2023-04-22T23:11:55.113Z,11.77
2023-04-22T23:14:23.086Z,14.65
2023-04-22T23:16:50.907Z,12.05
2023-04-22T23:19:18.156Z,13.98
2023-04-22T23:21:46.378Z,13.10
2023-04-22T23:24:15.578Z,11.05
2023-04-22T23:26:43.400Z,13.43
2023-04-22T23:29:10.825Z,12.48
2023-04-22T23:31:40.246Z,12.80
2023-04-22T23:34:07.644Z,12.15
2023-04-22T23:36:38.777Z,13.30
2023-04-22T23:39:06.804Z,14.05
2023-04-22T23:41:34.027Z,14.45
2023-04-22T23:44:00.919Z,14.30
2023-04-22T23:46:27.964Z,16.38
2023-04-22T23:48:55.130Z,12.40
2023-04-22T23:51:22.073Z,11.35
2023-04-22T23:53:48.973Z,9.73
2023-04-22T23:56:20.187Z,10.57
2023-04-22T23:58:48.290Z,12.18
